createdAt,value
2018-12-31T00:01:51.908Z,2.6
2018-12-31T00:06:57.833Z,2.7
2018-12-31T00:12:03.811Z,2.7
2018-12-31T00:17:10.106Z,2.5
2018-12-31T00:22:14.993Z,2.4
2018-12-31T00:27:20.852Z,2.5
2018-12-31T00:32:26.778Z,2.4
2018-12-31T00:37:31.860Z,2.4
2018-12-31T00:42:37.633Z,2.4
2018-12-31T00:47:43.623Z,2.7
2018-12-31T00:52:49.150Z,2.3
2018-12-31T00:57:55.449Z,2.4
2018-12-31T01:03:01.320Z,2.4
2018-12-31T01:08:07.196Z,2.4
2018-12-31T01:13:12.614Z,2.5
2018-12-31T01:18:16.678Z,2.6
2018-12-31T01:23:21.810Z,2.5
2018-12-31T01:28:26.880Z,2.3
2018-12-31T01:33:31.746Z,2.3
2018-12-31T01:38:37.663Z,2.2
2018-12-31T01:43:43.239Z,2.3
2018-12-31T01:48:48.654Z,2.2
2018-12-31T01:53:53.789Z,2.3
2018-12-31T01:58:59.782Z,2
2018-12-31T02:04:05.149Z,2.3
2018-12-31T02:09:11.420Z,2
2018-12-31T02:14:17.000Z,2.3
2018-12-31T02:19:22.199Z,2
2018-12-31T02:24:27.733Z,2
2018-12-31T02:29:34.100Z,2.1
2018-12-31T02:34:39.782Z,2.3
2018-12-31T02:39:45.445Z,2.1
2018-12-31T02:44:51.100Z,1.9
2018-12-31T02:49:56.439Z,2
2018-12-31T02:55:01.310Z,1.9
2018-12-31T03:00:06.929Z,2
2018-12-31T03:05:11.073Z,2
2018-12-31T03:10:15.183Z,1.9
2018-12-31T03:15:18.668Z,2
2018-12-31T03:20:22.805Z,2
2018-12-31T03:25:27.542Z,2.1
2018-12-31T03:30:31.572Z,1.9
2018-12-31T03:35:37.183Z,2
2018-12-31T03:40:40.925Z,1.8
2018-12-31T03:45:45.943Z,2.1
2018-12-31T03:50:51.050Z,2
2018-12-31T03:55:56.647Z,2.1
2018-12-31T04:01:02.363Z,1.8
2018-12-31T04:06:07.698Z,1.9
2018-12-31T04:11:13.060Z,1.8
2018-12-31T04:16:18.743Z,2
2018-12-31T04:21:24.689Z,2
2018-12-31T04:26:29.647Z,2
2018-12-31T04:31:36.133Z,1.8
2018-12-31T04:36:41.613Z,1.9
2018-12-31T04:41:46.888Z,1.9
2018-12-31T04:46:52.032Z,1.9
2018-12-31T04:51:57.776Z,1.9
2018-12-31T04:57:02.519Z,1.8
2018-12-31T05:02:08.526Z,1.6
2018-12-31T05:07:13.977Z,1.7
2018-12-31T05:12:17.724Z,1.6
2018-12-31T05:17:23.572Z,1.6
2018-12-31T05:22:28.103Z,1.7
2018-12-31T05:27:33.593Z,1.7
2018-12-31T05:32:39.747Z,1.4
2018-12-31T05:37:47.581Z,1.6
2018-12-31T05:42:54.611Z,1.7
2018-12-31T05:47:58.295Z,1.5
2018-12-31T05:53:03.952Z,1.6
2018-12-31T05:58:09.919Z,1.6
2018-12-31T06:03:16.319Z,1.5
2018-12-31T06:08:20.059Z,1.4
2018-12-31T06:13:26.012Z,1.7
2018-12-31T06:18:31.517Z,1.8
2018-12-31T06:23:36.761Z,1.9
2018-12-31T06:28:41.743Z,2.2
2018-12-31T06:33:47.009Z,2
2018-12-31T06:38:52.958Z,2.1
2018-12-31T06:43:58.198Z,2.4
2018-12-31T06:49:02.938Z,2
2018-12-31T06:54:07.697Z,2.3
2018-12-31T06:59:12.460Z,2.9
2018-12-31T07:04:17.577Z,2.6
2018-12-31T07:09:21.932Z,2.6
2018-12-31T07:14:27.504Z,2.5
2018-12-31T07:19:32.663Z,2.6
2018-12-31T07:24:38.943Z,3
2018-12-31T07:29:44.589Z,2.5
2018-12-31T07:34:49.672Z,2.5
2018-12-31T07:39:55.015Z,2.3
2018-12-31T07:45:01.305Z,2.8
2018-12-31T07:50:07.144Z,2.9
2018-12-31T07:55:12.812Z,2.4
2018-12-31T08:00:18.228Z,2.2
2018-12-31T08:05:22.762Z,2.3
2018-12-31T08:10:28.365Z,2.4
2018-12-31T08:15:34.206Z,2.8
2018-12-31T08:20:38.230Z,2.6
2018-12-31T08:25:42.663Z,2.6
2018-12-31T08:30:48.163Z,2.7
2018-12-31T08:35:54.308Z,3
2018-12-31T08:41:00.360Z,2.6
2018-12-31T08:46:06.277Z,2.6
2018-12-31T08:51:10.701Z,2.5
2018-12-31T08:56:16.989Z,3.5
2018-12-31T09:01:22.029Z,4.7
2018-12-31T09:06:27.504Z,3.9
2018-12-31T09:11:32.154Z,3.7
2018-12-31T09:16:38.145Z,3.6
2018-12-31T09:21:43.276Z,3.5
2018-12-31T09:26:49.243Z,2.9
2018-12-31T09:31:55.128Z,3.3
2018-12-31T09:37:00.833Z,3.3
2018-12-31T09:42:06.255Z,4.4
2018-12-31T09:47:06.615Z,3.9
2018-12-31T09:52:12.377Z,3.9
2018-12-31T09:57:17.955Z,4
2018-12-31T10:02:23.546Z,4
2018-12-31T10:07:29.320Z,5
2018-12-31T10:12:35.276Z,4.6
2018-12-31T10:17:39.220Z,4.2
2018-12-31T10:22:45.072Z,4.3
2018-12-31T10:27:52.905Z,4.6
2018-12-31T10:32:58.248Z,4.2
2018-12-31T10:38:04.441Z,4.2
2018-12-31T10:43:10.313Z,4.1
2018-12-31T10:48:16.481Z,4
2018-12-31T10:53:23.071Z,4
2018-12-31T10:58:28.871Z,7.2
2018-12-31T11:03:34.398Z,3.9
2018-12-31T11:08:40.116Z,3.5
2018-12-31T11:13:45.803Z,3.9
2018-12-31T11:18:50.959Z,4
2018-12-31T11:23:56.564Z,4
2018-12-31T11:29:02.450Z,4.1
2018-12-31T11:34:06.884Z,4.2
2018-12-31T11:39:12.334Z,3.7
2018-12-31T11:44:18.200Z,3.8
2018-12-31T11:49:25.010Z,3.5
2018-12-31T11:54:29.930Z,3.6
2018-12-31T11:59:34.416Z,3.8
2018-12-31T12:04:37.911Z,3.4
2018-12-31T12:09:43.731Z,3.4
2018-12-31T12:14:49.432Z,3.4
2018-12-31T12:19:54.831Z,3.2
2018-12-31T12:25:02.137Z,3.5
2018-12-31T12:30:06.463Z,3.6
2018-12-31T12:35:13.704Z,3.4
2018-12-31T12:40:21.297Z,3.4
2018-12-31T12:45:25.978Z,3.2
2018-12-31T12:50:31.517Z,3.3
2018-12-31T12:55:37.506Z,3.8
2018-12-31T13:00:43.307Z,3.9
2018-12-31T13:05:49.222Z,4
2018-12-31T13:10:54.932Z,4.2
2018-12-31T13:16:00.875Z,4.4
2018-12-31T13:21:06.659Z,4.2
2018-12-31T13:26:12.156Z,4
2018-12-31T13:31:17.268Z,4.2
2018-12-31T13:36:22.869Z,4.2
2018-12-31T13:41:30.244Z,4
2018-12-31T13:46:36.121Z,4.3
2018-12-31T13:51:41.608Z,5.6
2018-12-31T13:56:46.794Z,8.6
2018-12-31T14:01:53.115Z,9.1
2018-12-31T14:06:58.171Z,9.2
2018-12-31T14:12:04.641Z,10.2
2018-12-31T14:17:09.012Z,9.1
2018-12-31T14:22:14.086Z,9.9
2018-12-31T14:27:19.204Z,9.7
2018-12-31T14:32:25.205Z,9.6
2018-12-31T14:37:30.039Z,9.9
2018-12-31T14:42:35.410Z,9
2018-12-31T14:47:40.555Z,8.8
2018-12-31T14:52:46.065Z,9
2018-12-31T14:57:51.191Z,9.1
2018-12-31T15:02:56.542Z,8.8
2018-12-31T15:08:01.313Z,9
2018-12-31T15:13:06.658Z,8.4
2018-12-31T15:18:11.487Z,8.2
2018-12-31T15:23:16.201Z,8
2018-12-31T15:28:22.119Z,7.9
2018-12-31T15:33:27.972Z,7.4
2018-12-31T15:38:32.880Z,7.5
2018-12-31T15:43:38.231Z,7.2
2018-12-31T15:48:44.628Z,7.5
2018-12-31T15:53:50.183Z,7.6
2018-12-31T15:58:54.920Z,7.2
2018-12-31T16:04:00.812Z,6.9
2018-12-31T16:09:06.355Z,7
2018-12-31T16:14:12.077Z,6.8
2018-12-31T16:19:17.902Z,6.7
2018-12-31T16:24:23.567Z,6.8
2018-12-31T16:29:29.010Z,7.1
2018-12-31T16:34:34.032Z,6.8
2018-12-31T16:39:39.553Z,6.9
2018-12-31T16:44:44.710Z,6.4
2018-12-31T16:49:50.645Z,6.4
2018-12-31T16:54:59.033Z,6.4
2018-12-31T17:00:04.536Z,6.5
2018-12-31T17:05:09.560Z,6.1
2018-12-31T17:10:14.818Z,6.4
2018-12-31T17:15:20.035Z,6
2018-12-31T17:20:25.273Z,6.5
2018-12-31T17:25:35.059Z,6.2
2018-12-31T17:30:39.997Z,5.7
2018-12-31T17:35:43.413Z,5.7
2018-12-31T17:40:48.603Z,5.8
2018-12-31T17:45:56.327Z,5.7
2018-12-31T17:51:00.511Z,5.9
2018-12-31T17:56:07.886Z,5.6
2018-12-31T18:01:10.117Z,5.5
2018-12-31T18:06:15.721Z,6
2018-12-31T18:11:21.267Z,5.4
2018-12-31T18:16:27.369Z,5.1
2018-12-31T18:21:33.142Z,5.3
2018-12-31T18:26:33.808Z,5.1
2018-12-31T18:31:39.551Z,5.2
2018-12-31T18:36:43.899Z,5.1
2018-12-31T18:41:49.782Z,4.9
2018-12-31T18:46:56.160Z,5
2018-12-31T18:52:05.195Z,5.1
2018-12-31T18:57:11.491Z,5.1
2018-12-31T19:02:17.179Z,5.4
2018-12-31T19:07:22.839Z,5.1
2018-12-31T19:12:30.965Z,5.2
2018-12-31T19:17:35.125Z,5
2018-12-31T19:22:41.365Z,5
2018-12-31T19:27:45.184Z,4.9
2018-12-31T19:32:51.173Z,4.9
2018-12-31T19:37:56.581Z,4.8
2018-12-31T19:43:00.619Z,4.7
2018-12-31T19:48:05.200Z,5.2
2018-12-31T19:53:08.611Z,5.1
2018-12-31T19:58:12.860Z,5
2018-12-31T20:03:18.156Z,5
2018-12-31T20:08:22.048Z,5.3
2018-12-31T20:13:28.125Z,5
2018-12-31T20:18:33.809Z,5.2
2018-12-31T20:23:39.188Z,5.1
2018-12-31T20:28:45.526Z,5.4
2018-12-31T20:33:49.193Z,5.2
2018-12-31T20:38:54.721Z,5.5
2018-12-31T20:44:01.210Z,5.4
2018-12-31T20:49:06.671Z,5.6
2018-12-31T20:54:12.421Z,5.6
2018-12-31T20:59:18.687Z,5.4
2018-12-31T21:04:25.911Z,5.4
2018-12-31T21:09:30.894Z,5.6
2018-12-31T21:14:34.848Z,5.8
2018-12-31T21:19:39.482Z,5.9
2018-12-31T21:24:45.035Z,5.9
2018-12-31T21:29:48.746Z,5.9
2018-12-31T21:34:54.319Z,5.8
2018-12-31T21:40:00.500Z,5.5
2018-12-31T21:45:05.663Z,5.8
2018-12-31T21:50:11.701Z,5.9
2018-12-31T21:55:17.137Z,5.9
2018-12-31T22:00:23.152Z,6
2018-12-31T22:05:28.650Z,6
2018-12-31T22:10:35.246Z,6
2018-12-31T22:15:40.632Z,6.5
2018-12-31T22:20:46.043Z,6.4
2018-12-31T22:25:49.535Z,6.3
2018-12-31T22:30:52.998Z,6.6
2018-12-31T22:35:58.968Z,6.3
2018-12-31T22:41:05.382Z,6.6
2018-12-31T22:46:11.228Z,6.4
2018-12-31T22:51:15.350Z,6.5
2018-12-31T22:56:19.597Z,6.5
2018-12-31T23:01:25.730Z,6.2
2018-12-31T23:06:30.745Z,6.5
2018-12-31T23:11:36.183Z,6.2
2018-12-31T23:16:42.356Z,6.5
2018-12-31T23:21:47.870Z,6.7
2018-12-31T23:26:53.516Z,6.9
2018-12-31T23:31:58.589Z,6.5
2018-12-31T23:37:04.853Z,6.2
2018-12-31T23:42:11.232Z,6.6
2018-12-31T23:47:16.795Z,6.6
2018-12-31T23:52:20.964Z,6.6
2018-12-31T23:57:27.219Z,6.3
